Time;durP1;ratioP1;P1;durP2;ratioP2;P2;SDS_P1;SDS_P2;PMS_P1;PMS_P2;Temp;Humidity;BMP_temperature;BMP_pressure;BME280_temperature;BME280_humidity;BME280_pressure;Samples;Min_cycle;Max_cycle;Signal;HPM_P1;HPM_P2
2020/12/13 00:02:02;;;;;;;5.95;5.20;;;22.70;32.50;;;;;;5049512;28;20041;-70
2020/12/13 00:04:29;;;;;;;7.28;5.72;;;22.70;32.50;;;;;;5049923;28;20045;-71
2020/12/13 00:06:55;;;;;;;5.28;4.35;;;22.70;32.50;;;;;;5049836;28;20555;-70
2020/12/13 00:09:22;;;;;;;7.35;5.68;;;22.70;32.50;;;;;;5048867;28;20578;-70
2020/12/13 00:11:52;;;;;;;;;;;22.70;32.50;;;;;;5049712;28;20075;-70
2020/12/13 00:14:19;;;;;;;6.03;4.90;;;22.70;32.50;;;;;;5048785;28;19978;-70
2020/12/13 00:16:49;;;;;;;7.57;5.63;;;22.70;32.50;;;;;;5047532;28;20072;-70
2020/12/13 00:19:16;;;;;;;6.95;5.45;;;22.70;32.60;;;;;;5049254;28;20064;-70
2020/12/13 00:21:43;;;;;;;6.28;4.95;;;22.70;32.60;;;;;;5049362;28;20045;-70
2020/12/13 00:24:09;;;;;;;5.88;4.93;;;22.70;32.50;;;;;;5049639;28;20107;-71
2020/12/13 00:26:40;;;;;;;6.00;5.00;;;22.70;32.60;;;;;;5048468;28;20048;-71
2020/12/13 00:29:07;;;;;;;6.03;5.30;;;22.70;32.60;;;;;;5049258;28;20141;-70
2020/12/13 00:31:33;;;;;;;5.47;4.53;;;22.70;32.60;;;;;;5047856;28;20148;-70
2020/12/13 00:34:00;;;;;;;8.75;4.78;;;22.70;32.60;;;;;;5049125;28;20045;-71
2020/12/13 00:36:27;;;;;;;5.95;4.45;;;22.70;32.60;;;;;;5047846;28;20156;-71
2020/12/13 00:38:53;;;;;;;5.43;4.25;;;22.70;32.60;;;;;;5047964;28;20076;-70
2020/12/13 00:41:20;;;;;;;6.53;5.25;;;22.70;32.60;;;;;;5048668;28;20558;-70
2020/12/13 00:43:46;;;;;;;6.40;4.63;;;22.70;32.60;;;;;;5049086;28;20135;-73
2020/12/13 00:46:13;;;;;;;6.13;5.15;;;22.70;32.60;;;;;;5048910;28;20452;-70
2020/12/13 00:48:40;;;;;;;6.80;4.68;;;22.70;32.60;;;;;;5048880;28;20052;-70
2020/12/13 00:51:07;;;;;;;6.57;4.65;;;22.70;32.70;;;;;;5047429;28;20116;-71
2020/12/13 00:53:33;;;;;;;5.30;4.32;;;22.70;32.70;;;;;;5046801;28;20325;-70
2020/12/13 00:56:00;;;;;;;5.95;4.82;;;22.60;32.70;;;;;;5048462;28;20506;-70
2020/12/13 00:58:27;;;;;;;6.72;5.03;;;22.60;32.70;;;;;;5048191;28;20136;-71
2020/12/13 01:00:55;;;;;;;6.85;4.72;;;22.60;32.70;;;;;;5048463;28;20498;-71
2020/12/13 01:03:21;;;;;;;5.05;4.10;;;22.60;32.70;;;;;;5047914;28;20049;-70
2020/12/13 01:05:48;;;;;;;7.35;4.72;;;22.60;32.70;;;;;;5048411;28;20041;-71
2020/12/13 01:08:15;;;;;;;6.10;4.80;;;22.60;32.70;;;;;;5047975;28;20114;-70
2020/12/13 01:10:41;;;;;;;5.85;4.75;;;22.60;32.70;;;;;;5048534;28;20132;-70
2020/12/13 01:13:08;;;;;;;6.82;5.00;;;22.60;33.30;;;;;;5048284;28;20486;-71
2020/12/13 01:15:34;;;;;;;6.38;5.10;;;22.60;32.70;;;;;;5047903;28;20462;-70
2020/12/13 01:18:01;;;;;;;5.55;4.65;;;22.60;32.70;;;;;;5047979;28;20552;-70
2020/12/13 01:20:28;;;;;;;5.50;4.53;;;22.60;32.70;;;;;;5048441;28;20052;-70
2020/12/13 01:22:54;;;;;;;5.75;4.70;;;22.60;32.70;;;;;;5047271;28;20207;-70
2020/12/13 01:25:21;;;;;;;6.72;4.97;;;22.60;32.70;;;;;;5047472;28;20060;-71
2020/12/13 01:27:48;;;;;;;5.53;4.30;;;22.60;32.70;;;;;;5047913;28;20045;-71
2020/12/13 01:30:14;;;;;;;5.90;4.90;;;22.60;32.70;;;;;;5048309;28;20498;-70
2020/12/13 01:32:45;;;;;;;5.20;4.50;;;22.60;32.70;;;;;;5046202;28;20102;-70
2020/12/13 01:35:12;;;;;;;6.38;5.25;;;22.60;32.70;;;;;;5047835;28;20084;-70
2020/12/13 01:37:39;;;;;;;5.28;4.30;;;22.60;32.70;;;;;;5047847;28;20309;-71
2020/12/13 01:40:07;;;;;;;6.40;4.57;;;22.60;32.70;;;;;;5047393;28;20201;-71
2020/12/13 01:42:41;;;;;;;6.78;4.80;;;22.60;32.80;;;;;;5048080;28;20111;-70
2020/12/13 01:45:11;;;;;;;6.70;4.72;;;22.60;32.80;;;;;;5047879;28;20041;-71
2020/12/13 01:47:38;;;;;;;6.78;4.72;;;22.60;32.80;;;;;;5046273;28;20140;-71
2020/12/13 01:50:14;;;;;;;6.38;4.85;;;22.60;32.80;;;;;;5047765;28;20701;-70
2020/12/13 01:52:47;;;;;;;7.00;4.30;;;22.60;32.90;;;;;;5047667;28;20147;-70
2020/12/13 01:55:17;;;;;;;5.95;4.60;;;22.60;32.90;;;;;;5047305;28;20084;-70
2020/12/13 01:57:47;;;;;;;6.75;4.90;;;22.50;33.10;;;;;;5046928;28;20069;-70
2020/12/13 02:00:16;;;;;;;7.13;5.43;;;22.50;32.80;;;;;;5047332;28;20163;-71
2020/12/13 02:02:58;;;;;;;5.47;4.47;;;22.50;32.80;;;;;;5047355;28;20069;-70
2020/12/13 02:05:25;;;;;;;6.15;4.47;;;22.50;32.90;;;;;;5047429;28;20041;-70
2020/12/13 02:07:55;;;;;;;6.40;4.90;;;22.50;32.90;;;;;;5030419;28;20127;-71
2020/12/13 02:10:22;;;;;;;6.50;4.65;;;22.50;32.90;;;;;;5046638;28;20139;-70
2020/12/13 02:12:49;;;;;;;4.45;4.00;;;22.50;32.90;;;;;;5046952;28;20071;-71
2020/12/13 02:15:15;;;;;;;6.10;4.50;;;22.60;32.90;;;;;;5046235;28;20053;-70
2020/12/13 02:17:42;;;;;;;6.45;4.72;;;22.60;32.90;;;;;;5046965;28;20081;-71
2020/12/13 02:20:11;;;;;;;6.22;4.63;;;22.60;32.90;;;;;;5046602;28;20278;-70
2020/12/13 02:22:40;;;;;;;5.32;4.20;;;22.60;32.90;;;;;;5047388;28;20487;-71
2020/12/13 02:25:11;;;;;;;4.78;4.10;;;22.60;32.90;;;;;;5046863;28;20122;-71
2020/12/13 02:27:38;;;;;;;5.60;4.70;;;22.60;32.90;;;;;;5047056;28;20055;-70
2020/12/13 02:30:07;;;;;;;6.03;4.63;;;22.60;32.90;;;;;;5045812;28;20533;-70
2020/12/13 02:32:34;;;;;;;6.38;4.95;;;22.60;32.90;;;;;;5047290;28;20128;-74
2020/12/13 02:35:01;;;;;;;5.40;4.47;;;22.50;32.90;;;;;;5046512;28;20559;-70
2020/12/13 02:37:28;;;;;;;6.70;4.63;;;22.50;32.90;;;;;;5046905;28;20045;-71
2020/12/13 02:39:55;;;;;;;5.40;4.50;;;22.50;32.90;;;;;;5046271;28;20286;-70
2020/12/13 02:42:22;;;;;;;5.55;4.07;;;22.50;32.90;;;;;;5046196;28;20040;-70
2020/12/13 02:44:48;;;;;;;6.80;5.28;;;22.50;32.90;;;;;;5046837;28;20041;-70
2020/12/13 02:47:15;;;;;;;5.40;4.05;;;22.50;32.90;;;;;;5047301;28;20052;-70
2020/12/13 02:49:42;;;;;;;6.18;5.00;;;22.50;32.90;;;;;;5047298;28;20040;-70
2020/12/13 02:52:09;;;;;;;6.57;5.00;;;22.50;33.00;;;;;;5046583;28;20053;-69
2020/12/13 02:54:37;;;;;;;6.63;4.20;;;22.50;33.00;;;;;;5047090;28;20055;-70
2020/12/13 02:57:04;;;;;;;5.60;4.40;;;22.50;33.00;;;;;;5046942;28;20392;-71
2020/12/13 02:59:30;;;;;;;6.28;4.78;;;22.50;33.00;;;;;;5046863;28;20052;-71
2020/12/13 03:01:57;;;;;;;5.75;4.68;;;22.50;33.00;;;;;;5046161;28;20044;-70
2020/12/13 03:04:25;;;;;;;4.55;3.88;;;22.50;33.00;;;;;;5045304;28;20044;-70
2020/12/13 03:06:52;;;;;;;5.00;3.97;;;22.50;33.00;;;;;;5046749;28;20151;-70
2020/12/13 03:09:18;;;;;;;4.72;4.18;;;22.50;33.00;;;;;;5046959;28;20045;-70
2020/12/13 03:11:45;;;;;;;4.70;4.13;;;22.50;33.10;;;;;;5050884;28;20333;-70
2020/12/13 03:14:12;;;;;;;6.32;5.13;;;22.50;33.00;;;;;;5050144;28;20341;-70
2020/12/13 03:16:38;;;;;;;6.25;4.30;;;22.50;33.00;;;;;;5049882;28;20132;-70
2020/12/13 03:19:05;;;;;;;4.72;4.18;;;22.50;33.00;;;;;;5050823;28;20268;-71
2020/12/13 03:21:32;;;;;;;5.45;4.30;;;22.50;33.00;;;;;;5050255;28;20095;-71
2020/12/13 03:23:58;;;;;;;5.68;4.18;;;22.50;33.00;;;;;;5050405;28;20104;-70
2020/12/13 03:26:25;;;;;;;5.18;4.43;;;22.50;33.00;;;;;;5048524;28;20085;-74
2020/12/13 03:28:51;;;;;;;4.55;4.10;;;22.50;33.00;;;;;;5049674;28;20040;-71
2020/12/13 03:31:18;;;;;;;5.22;4.40;;;22.50;33.00;;;;;;5050627;28;20213;-71
2020/12/13 03:33:47;;;;;;;4.97;4.05;;;22.50;33.00;;;;;;5049771;28;20040;-70
2020/12/13 03:36:14;;;;;;;5.93;4.53;;;22.50;33.00;;;;;;5049179;28;20111;-71
2020/12/13 03:38:40;;;;;;;5.00;4.05;;;22.50;33.00;;;;;;5049141;28;20094;-70
2020/12/13 03:41:07;;;;;;;4.50;3.97;;;22.50;33.10;;;;;;5050156;28;20087;-70
2020/12/13 03:43:34;;;;;;;6.15;4.53;;;22.50;33.10;;;;;;5049689;28;20132;-71
2020/12/13 03:46:00;;;;;;;4.95;4.43;;;22.50;33.10;;;;;;5050441;28;20128;-71
2020/12/13 03:48:30;;;;;;;4.78;4.20;;;22.50;33.10;;;;;;5049772;28;20559;-71
2020/12/13 03:50:57;;;;;;;5.10;4.28;;;22.40;33.10;;;;;;5049893;28;20140;-70
2020/12/13 03:53:23;;;;;;;6.13;4.13;;;22.50;33.10;;;;;;5049677;28;20135;-70
2020/12/13 03:55:52;;;;;;;6.15;4.82;;;22.40;33.10;;;;;;5048498;28;20622;-71
2020/12/13 03:58:18;;;;;;;4.53;4.05;;;22.40;33.10;;;;;;5049078;28;20517;-71
2020/12/13 04:00:45;;;;;;;4.40;3.83;;;22.40;33.10;;;;;;5049585;28;20056;-70
2020/12/13 04:03:12;;;;;;;5.57;4.30;;;22.40;33.20;;;;;;5049407;28;20071;-70
2020/12/13 04:05:39;;;;;;;5.13;4.15;;;22.40;33.70;;;;;;5049602;28;20076;-70
2020/12/13 04:08:05;;;;;;;6.20;4.82;;;22.40;33.10;;;;;;5049575;28;20045;-70
2020/12/13 04:10:32;;;;;;;5.13;4.20;;;22.40;33.20;;;;;;5048033;28;20091;-71
2020/12/13 04:12:59;;;;;;;4.93;4.07;;;22.40;33.20;;;;;;5049894;28;20110;-70
2020/12/13 04:15:25;;;;;;;4.57;3.83;;;22.50;33.20;;;;;;5049172;28;20048;-71
2020/12/13 04:17:52;;;;;;;5.25;4.55;;;22.40;33.10;;;;;;5048204;28;20070;-70
2020/12/13 04:20:19;;;;;;;6.15;4.60;;;22.50;33.20;;;;;;5048325;28;20353;-70
2020/12/13 04:22:46;;;;;;;5.13;4.20;;;22.50;33.20;;;;;;5049133;28;20322;-70
2020/12/13 04:25:13;;;;;;;5.72;4.45;;;22.50;33.10;;;;;;5048507;28;20125;-70
2020/12/13 04:27:39;;;;;;;5.88;4.35;;;22.50;33.10;;;;;;5049404;28;20114;-70
2020/12/13 04:30:06;;;;;;;4.15;3.72;;;22.50;33.10;;;;;;5049040;28;20068;-70
2020/12/13 04:32:34;;;;;;;4.63;3.88;;;22.50;33.20;;;;;;5049126;28;20399;-70
2020/12/13 04:35:00;;;;;;;4.75;3.83;;;22.40;33.10;;;;;;5047952;28;20516;-71
2020/12/13 04:37:27;;;;;;;5.07;3.75;;;22.40;33.10;;;;;;5048744;28;20049;-71
2020/12/13 04:39:54;;;;;;;4.15;3.53;;;22.40;33.20;;;;;;5048696;28;20116;-71
2020/12/13 04:42:24;;;;;;;5.47;4.57;;;22.40;33.20;;;;;;5048483;28;20055;-71
2020/12/13 04:44:52;;;;;;;4.40;3.88;;;22.40;33.20;;;;;;5048429;28;20161;-71
2020/12/13 04:47:20;;;;;;;4.32;3.70;;;22.40;33.20;;;;;;5047578;28;20051;-71
2020/12/13 04:49:50;;;;;;;5.18;4.45;;;22.40;33.20;;;;;;5048243;28;20049;-70
2020/12/13 04:52:17;;;;;;;5.20;3.92;;;22.40;33.20;;;;;;5047941;28;20083;-70
2020/12/13 04:54:48;;;;;;;4.68;3.83;;;22.40;33.20;;;;;;5048691;28;20482;-70
2020/12/13 04:57:16;;;;;;;4.65;3.92;;;22.40;33.30;;;;;;5048251;28;20449;-70
2020/12/13 04:59:44;;;;;;;4.70;4.10;;;22.40;33.30;;;;;;5048965;28;20280;-70
2020/12/13 05:02:12;;;;;;;4.88;3.83;;;22.40;33.30;;;;;;5047676;28;20041;-71
2020/12/13 05:04:40;;;;;;;4.85;4.13;;;22.40;33.30;;;;;;5048230;28;20506;-70
2020/12/13 05:07:07;;;;;;;6.15;4.45;;;22.40;33.30;;;;;;5048170;28;20084;-71
2020/12/13 05:09:34;;;;;;;5.30;4.00;;;22.40;33.30;;;;;;5048521;28;20052;-71
2020/12/13 05:12:01;;;;;;;6.38;4.93;;;22.40;33.30;;;;;;5047459;28;20131;-70
2020/12/13 05:14:27;;;;;;;5.50;4.25;;;22.40;33.30;;;;;;5048079;28;20091;-70
2020/12/13 05:17:13;;;;;;;6.13;4.32;;;22.40;33.30;;;;;;5048011;28;20120;-71
2020/12/13 05:19:42;;;;;;;4.90;3.72;;;22.40;33.30;;;;;;5048488;28;20045;-70
2020/12/13 05:22:08;;;;;;;4.40;3.92;;;22.40;33.30;;;;;;5048279;28;20041;-71
2020/12/13 05:24:36;;;;;;;4.90;4.25;;;22.40;33.30;;;;;;5047670;28;20432;-70
2020/12/13 05:27:07;;;;;;;4.53;3.85;;;22.40;33.30;;;;;;5048390;28;20406;-71
2020/12/13 05:29:37;;;;;;;4.35;3.70;;;22.40;33.20;;;;;;5047957;28;20211;-70
2020/12/13 05:32:17;;;;;;;4.07;3.67;;;22.40;33.30;;;;;;5047656;28;20068;-70
2020/12/13 05:34:45;;;;;;;4.40;3.58;;;22.40;33.30;;;;;;5047480;28;20508;-70
2020/12/13 05:37:17;;;;;;;5.05;4.05;;;22.40;33.30;;;;;;5046896;28;20087;-70
2020/12/13 05:39:49;;;;;;;5.47;4.07;;;22.40;33.30;;;;;;5046650;28;20044;-71
2020/12/13 05:42:33;;;;;;;4.28;3.75;;;22.40;33.30;;;;;;5047455;28;20088;-70
2020/12/13 05:45:25;;;;;;;4.95;3.83;;;22.40;33.30;;;;;;5048036;28;20076;-70
2020/12/13 05:51:00;;;;;;;3.63;3.33;;;22.40;33.40;;;;;;5046539;28;20045;-70
2020/12/13 05:53:21;;;;;;;5.55;4.43;;;22.40;33.40;;;;;;5047382;28;20124;-70
2020/12/13 05:55:56;;;;;;;4.55;3.90;;;22.40;33.40;;;;;;5047761;28;20103;-71
2020/12/13 05:58:26;;;;;;;4.27;3.33;;;22.40;33.40;;;;;;5045949;28;20132;-71
2020/12/13 06:00:55;;;;;;;6.35;4.70;;;22.30;33.40;;;;;;5046134;28;20136;-70
2020/12/13 06:03:38;;;;;;;4.28;3.75;;;22.40;33.40;;;;;;5046923;28;20080;-71
2020/12/13 06:06:07;;;;;;;4.85;3.70;;;22.40;33.50;;;;;;5047041;28;20495;-71
2020/12/13 06:09:05;;;;;;;5.05;4.00;;;22.40;33.50;;;;;;5047779;28;20211;-70
2020/12/13 06:11:39;;;;;;;5.55;4.68;;;22.40;33.40;;;;;;5045450;28;20550;-70
2020/12/13 06:14:15;;;;;;;5.63;4.57;;;22.40;33.40;;;;;;5047400;28;20134;-70
2020/12/13 06:16:43;;;;;;;5.03;4.28;;;22.40;33.40;;;;;;5046877;28;20083;-70
2020/12/13 06:19:13;;;;;;;5.30;4.18;;;22.40;33.40;;;;;;5042714;28;20087;-70
2020/12/13 06:21:42;;;;;;;5.47;4.40;;;22.40;33.40;;;;;;5047082;28;20080;-70
2020/12/13 06:24:08;;;;;;;5.63;4.30;;;22.40;33.40;;;;;;5047100;28;20071;-70
2020/12/13 06:26:37;;;;;;;7.75;4.82;;;22.40;33.30;;;;;;5042448;28;20046;-70
2020/12/13 06:29:05;;;;;;;6.28;4.63;;;22.40;33.30;;;;;;5038731;28;20130;-70
2020/12/13 06:31:33;;;;;;;5.43;4.43;;;22.40;33.30;;;;;;5039853;28;20511;-71
2020/12/13 06:34:01;;;;;;;5.30;3.80;;;22.40;33.30;;;;;;5027474;28;20053;-70
2020/12/13 06:36:30;;;;;;;5.90;4.25;;;22.40;33.30;;;;;;5027207;28;20095;-70
2020/12/13 06:38:57;;;;;;;5.80;3.85;;;22.40;33.20;;;;;;5026364;28;20054;-70
2020/12/13 06:41:26;;;;;;;5.95;4.57;;;22.50;33.30;;;;;;5027146;28;20050;-70
2020/12/13 06:44:02;;;;;;;5.28;4.25;;;22.50;33.30;;;;;;5029019;28;20364;-70
2020/12/13 06:46:29;;;;;;;5.20;4.47;;;22.50;33.20;;;;;;5031078;28;20129;-70
2020/12/13 06:48:58;;;;;;;4.85;4.20;;;22.60;33.20;;;;;;5031845;28;20046;-70
2020/12/13 06:51:30;;;;;;;5.63;4.25;;;22.60;33.20;;;;;;5031347;28;20546;-70
2020/12/13 06:53:58;;;;;;;4.68;4.10;;;22.70;33.10;;;;;;5030137;28;20447;-70
2020/12/13 06:56:25;;;;;;;5.22;4.28;;;22.70;33.70;;;;;;5030924;28;20096;-71
2020/12/13 06:59:01;;;;;;;4.78;3.53;;;22.70;33.00;;;;;;5030597;28;20048;-71
2020/12/13 07:01:43;;;;;;;5.15;4.38;;;22.70;32.90;;;;;;5031217;28;20125;-70
2020/12/13 07:04:27;;;;;;;5.30;4.13;;;22.80;32.90;;;;;;5031391;28;20115;-70
2020/12/13 07:07:17;;;;;;;5.00;3.92;;;22.80;32.80;;;;;;5030617;28;20103;-71
2020/12/13 07:09:42;;;;;;;4.93;4.18;;;22.90;32.90;;;;;;5030296;28;20515;-71
2020/12/13 07:12:10;;;;;;;5.63;4.40;;;22.90;32.80;;;;;;5030855;28;20338;-71
2020/12/13 07:14:40;;;;;;;5.47;4.13;;;22.90;32.70;;;;;;5030805;28;20464;-71
2020/12/13 07:17:14;;;;;;;5.30;4.47;;;22.90;32.70;;;;;;5030523;28;20532;-70
2020/12/13 07:19:46;;;;;;;4.88;4.38;;;22.90;32.70;;;;;;5030552;28;20045;-70
2020/12/13 07:22:14;;;;;;;4.85;4.30;;;23.00;32.60;;;;;;5030800;28;20461;-70
2020/12/13 07:24:42;;;;;;;5.38;4.10;;;23.00;32.60;;;;;;5030218;28;20077;-70
2020/12/13 07:27:10;;;;;;;4.38;3.92;;;23.00;32.60;;;;;;5029833;28;20069;-70
2020/12/13 07:29:38;;;;;;;4.95;4.05;;;23.10;32.60;;;;;;5060669;28;20087;-71
2020/12/13 07:32:06;;;;;;;4.75;3.70;;;23.10;32.60;;;;;;5030522;28;20619;-70
2020/12/13 07:34:34;;;;;;;4.25;3.67;;;23.10;32.60;;;;;;5061260;28;20214;-70
2020/12/13 07:37:01;;;;;;;5.85;4.20;;;23.10;32.50;;;;;;5029872;28;20553;-70
2020/12/13 07:39:29;;;;;;;5.13;3.83;;;23.20;32.50;;;;;;5029840;28;20466;-70
2020/12/13 07:41:57;;;;;;;4.40;4.00;;;23.20;32.50;;;;;;5029545;28;20634;-71
2020/12/13 07:44:23;;;;;;;4.82;3.95;;;23.20;32.40;;;;;;5030469;28;20223;-71
2020/12/13 07:46:50;;;;;;;4.75;4.00;;;23.30;32.40;;;;;;5061727;28;20184;-71
2020/12/13 07:49:19;;;;;;;4.05;3.35;;;23.30;32.30;;;;;;5065740;28;20134;-70
2020/12/13 07:51:48;;;;;;;4.45;4.05;;;23.30;32.30;;;;;;5033540;28;20056;-71
2020/12/13 07:54:29;;;;;;;4.83;3.90;;;23.40;32.30;;;;;;5032137;28;20073;-70
2020/12/13 07:56:58;;;;;;;6.20;4.68;;;23.40;32.20;;;;;;5033039;28;20113;-74
2020/12/13 07:59:27;;;;;;;4.78;4.20;;;23.40;32.20;;;;;;5033082;28;20037;-71
2020/12/13 08:01:56;;;;;;;5.35;3.83;;;23.40;32.10;;;;;;5034223;28;20049;-71
2020/12/13 08:04:41;;;;;;;4.53;3.90;;;23.50;32.10;;;;;;5034835;28;20214;-70
2020/12/13 08:07:10;;;;;;;4.80;4.25;;;23.50;32.10;;;;;;5029382;28;20136;-70
2020/12/13 08:09:41;;;;;;;5.65;4.47;;;23.60;32.10;;;;;;5029771;28;20148;-71
2020/12/13 08:12:13;;;;;;;5.13;4.35;;;23.60;32.00;;;;;;5029759;28;20151;-70
2020/12/13 08:14:40;;;;;;;4.70;3.88;;;23.60;32.00;;;;;;5028272;28;20095;-70
2020/12/13 08:17:07;;;;;;;4.60;4.07;;;23.60;32.00;;;;;;5029388;28;20552;-70
2020/12/13 08:19:47;;;;;;;5.20;4.22;;;23.60;31.90;;;;;;5028688;28;20049;-71
2020/12/13 08:22:20;;;;;;;4.72;3.80;;;23.70;31.90;;;;;;5029214;28;20073;-70
2020/12/13 08:25:00;;;;;;;4.10;3.70;;;23.70;31.90;;;;;;5029348;28;20076;-70
2020/12/13 08:27:28;;;;;;;4.72;3.75;;;23.70;31.80;;;;;;5028738;28;20144;-70
2020/12/13 08:29:57;;;;;;;5.50;4.30;;;23.80;31.80;;;;;;5029026;28;20111;-70
2020/12/13 08:32:31;;;;;;;5.35;4.40;;;23.80;31.80;;;;;;5029650;28;20232;-70
2020/12/13 08:35:17;;;;;;;4.72;3.95;;;23.80;31.80;;;;;;5029426;28;20165;-70
2020/12/13 08:37:56;;;;;;;5.05;4.05;;;23.80;31.70;;;;;;5029011;28;20050;-70
2020/12/13 08:40:45;;;;;;;4.40;3.88;;;23.90;31.70;;;;;;5027732;28;20053;-70
2020/12/13 08:43:20;;;;;;;4.07;3.65;;;23.90;31.70;;;;;;5028987;28;20084;-70
2020/12/13 08:45:55;;;;;;;4.78;3.80;;;23.90;31.60;;;;;;5029352;28;20050;-73
2020/12/13 08:48:26;;;;;;;4.53;3.90;;;23.90;31.60;;;;;;5027341;28;20466;-73
2020/12/13 08:51:10;;;;;;;5.38;4.45;;;24.00;31.60;;;;;;5029155;28;20057;-70
2020/12/13 08:53:37;;;;;;;5.15;4.30;;;24.00;31.60;;;;;;5028266;28;20584;-70
2020/12/13 08:56:09;;;;;;;4.43;3.70;;;24.00;31.50;;;;;;5028715;28;20080;-70
2020/12/13 08:58:50;;;;;;;5.32;4.57;;;24.00;31.50;;;;;;5028524;28;20521;-70
2020/12/13 09:01:17;;;;;;;5.00;4.13;;;24.10;31.50;;;;;;5028792;28;20099;-70
2020/12/13 09:03:45;;;;;;;4.70;4.13;;;24.10;31.50;;;;;;5027517;28;20285;-70
2020/12/13 09:06:11;;;;;;;5.15;4.47;;;24.10;31.50;;;;;;5028393;28;20088;-70
2020/12/13 09:08:38;;;;;;;4.88;4.15;;;24.10;31.50;;;;;;5028373;28;20077;-70
2020/12/13 09:11:05;;;;;;;4.88;4.22;;;24.10;31.40;;;;;;5028491;28;20132;-71
2020/12/13 09:13:32;;;;;;;4.95;4.28;;;24.20;31.50;;;;;;5028106;28;20499;-70
2020/12/13 09:16:03;;;;;;;4.80;4.18;;;24.20;31.50;;;;;;5034063;28;20072;-70
2020/12/13 09:18:31;;;;;;;4.65;3.97;;;24.20;31.30;;;;;;5047659;28;20045;-70
2020/12/13 09:20:58;;;;;;;5.28;3.92;;;24.20;31.30;;;;;;5047416;28;20048;-70
2020/12/13 09:23:25;;;;;;;4.43;3.83;;;24.20;31.30;;;;;;5047425;28;20049;-70
2020/12/13 09:25:53;;;;;;;4.43;4.03;;;24.30;31.40;;;;;;5047396;28;20049;-70
2020/12/13 09:28:21;;;;;;;4.07;3.67;;;24.30;31.30;;;;;;5045990;28;20077;-70
2020/12/13 09:30:48;;;;;;;4.80;3.88;;;24.30;31.30;;;;;;5045396;28;20450;-70
2020/12/13 09:33:15;;;;;;;5.35;4.65;;;24.30;31.20;;;;;;5046870;28;20494;-71
2020/12/13 09:35:42;;;;;;;5.47;4.45;;;24.30;31.20;;;;;;5046719;28;20056;-70
2020/12/13 09:38:10;;;;;;;5.00;4.50;;;24.30;31.20;;;;;;5046833;28;20076;-70
2020/12/13 09:40:37;;;;;;;4.95;4.22;;;24.40;31.20;;;;;;5041216;28;20049;-70
2020/12/13 09:43:04;;;;;;;4.57;4.05;;;24.40;31.10;;;;;;5047015;28;20049;-70
2020/12/13 09:45:31;;;;;;;5.13;4.30;;;24.40;31.10;;;;;;5046191;28;20087;-73
2020/12/13 09:47:57;;;;;;;4.88;4.38;;;24.50;31.10;;;;;;5045294;28;20137;-69
2020/12/13 09:50:27;;;;;;;5.25;4.32;;;24.50;31.10;;;;;;5040607;28;20044;-70
2020/12/13 09:52:54;;;;;;;5.50;4.88;;;24.50;31.30;;;;;;5045903;28;20384;-70
2020/12/13 09:55:21;;;;;;;5.10;4.50;;;24.50;31.00;;;;;;5046228;28;20048;-69
2020/12/13 09:57:47;;;;;;;6.70;5.13;;;24.50;31.00;;;;;;5039570;28;20517;-70
2020/12/13 10:00:14;;;;;;;4.88;4.35;;;24.60;31.00;;;;;;5042928;28;20250;-70
2020/12/13 10:02:42;;;;;;;5.70;4.70;;;24.60;31.00;;;;;;5044335;28;20110;-70
2020/12/13 10:05:21;;;;;;;5.60;4.68;;;24.60;31.00;;;;;;5045748;28;20045;-70
2020/12/13 10:10:38;;;;;;;6.20;5.43;;;24.70;30.90;;;;;;5046409;28;20522;-69
2020/12/13 10:13:04;;;;;;;6.53;5.20;;;24.70;30.80;;;;;;5045956;28;20107;-70
2020/12/13 10:15:31;;;;;;;5.78;4.55;;;24.80;30.80;;;;;;5045824;28;20094;-70
2020/12/13 10:17:58;;;;;;;5.53;4.70;;;24.80;30.70;;;;;;5044413;28;20140;-70
2020/12/13 10:20:25;;;;;;;6.55;5.30;;;24.90;30.70;;;;;;5046211;28;20045;-70
2020/12/13 10:22:51;;;;;;;6.47;5.20;;;24.90;30.60;;;;;;5047231;28;20057;-71
2020/12/13 10:25:19;;;;;;;5.65;4.65;;;24.90;30.60;;;;;;5047611;28;20133;-70
2020/12/13 10:27:45;;;;;;;5.88;5.28;;;25.00;30.60;;;;;;5047287;28;20136;-69
2020/12/13 10:30:12;;;;;;;5.53;4.97;;;25.00;30.50;;;;;;5046980;28;20457;-70
2020/12/13 10:32:39;;;;;;;6.30;5.20;;;25.10;30.50;;;;;;5045725;28;20115;-70
2020/12/13 10:35:05;;;;;;;8.13;6.20;;;25.10;30.50;;;;;;5046872;28;20052;-70
2020/12/13 10:37:32;;;;;;;5.95;5.35;;;25.10;30.40;;;;;;5045519;28;20073;-71
2020/12/13 10:39:58;;;;;;;6.40;5.47;;;25.10;30.40;;;;;;5047569;28;20085;-69
2020/12/13 10:42:25;;;;;;;6.07;5.20;;;25.20;30.40;;;;;;5046730;28;20076;-70
2020/12/13 10:44:52;;;;;;;6.07;5.47;;;25.20;30.30;;;;;;5046015;28;20084;-69
2020/12/13 10:47:19;;;;;;;6.22;5.38;;;25.30;30.30;;;;;;5045524;28;20524;-70
2020/12/13 10:49:46;;;;;;;6.60;5.60;;;25.30;30.20;;;;;;5046789;28;20131;-70
2020/12/13 10:52:12;;;;;;;6.13;5.53;;;25.30;30.20;;;;;;5047194;28;20073;-70
2020/12/13 10:54:39;;;;;;;6.32;5.57;;;25.40;30.20;;;;;;5046701;28;20490;-69
2020/12/13 10:57:07;;;;;;;6.97;5.78;;;25.40;30.20;;;;;;5047075;28;20491;-70
2020/12/13 10:59:33;;;;;;;5.82;5.25;;;25.40;30.20;;;;;;5046245;28;20306;-70
2020/12/13 11:02:00;;;;;;;7.18;6.47;;;25.40;30.10;;;;;;5047046;28;20080;-70
2020/12/13 11:04:28;;;;;;;6.68;5.97;;;25.50;30.10;;;;;;5046622;28;20048;-70
2020/12/13 11:06:55;;;;;;;6.32;5.40;;;25.50;30.00;;;;;;5029500;28;20109;-70
2020/12/13 11:09:21;;;;;;;6.18;5.50;;;25.50;30.00;;;;;;5046958;28;20136;-69
2020/12/13 11:11:48;;;;;;;6.43;5.45;;;25.50;30.00;;;;;;5046925;28;20088;-69
2020/12/13 11:14:14;;;;;;;7.40;5.85;;;25.60;30.00;;;;;;5047119;28;20133;-70
2020/12/13 11:16:46;;;;;;;6.65;5.95;;;25.60;30.00;;;;;;5046643;28;20540;-70
2020/12/13 11:19:13;;;;;;;6.40;5.65;;;25.60;30.00;;;;;;5046410;28;20457;-70
2020/12/13 11:21:45;;;;;;;5.60;5.00;;;25.60;30.00;;;;;;5047191;28;20131;-69
2020/12/13 11:24:12;;;;;;;5.50;4.97;;;25.60;30.00;;;;;;5046517;28;20277;-69
2020/12/13 11:26:41;;;;;;;6.30;5.65;;;25.60;29.90;;;;;;5046812;28;20298;-71
2020/12/13 11:29:08;;;;;;;5.65;5.03;;;25.70;30.00;;;;;;5045188;28;20053;-70
2020/12/13 11:31:36;;;;;;;6.05;5.47;;;25.70;29.90;;;;;;5049291;28;20049;-70
2020/12/13 11:34:03;;;;;;;5.78;5.07;;;25.70;29.90;;;;;;5049212;28;20125;-70
2020/12/13 11:36:30;;;;;;;5.75;5.20;;;25.70;29.90;;;;;;5050320;28;20095;-69
2020/12/13 11:38:56;;;;;;;6.05;5.45;;;25.70;29.90;;;;;;5049268;28;20044;-70
2020/12/13 11:41:30;;;;;;;6.20;5.60;;;25.80;29.90;;;;;;5049273;28;20128;-69
2020/12/13 11:43:56;;;;;;;6.55;5.60;;;25.80;29.90;;;;;;5049058;28;20045;-69
2020/12/13 11:46:23;;;;;;;6.57;5.75;;;25.80;29.90;;;;;;5048945;28;20080;-70
2020/12/13 11:48:50;;;;;;;6.68;5.97;;;25.70;29.80;;;;;;5050331;28;20045;-69
2020/12/13 11:51:20;;;;;;;;;;;25.80;29.90;;;;;;5050189;28;20049;-70
2020/12/13 11:53:46;;;;;;;5.53;4.90;;;25.80;29.90;;;;;;5049773;28;20320;-69
2020/12/13 11:56:19;;;;;;;5.65;5.00;;;25.80;30.00;;;;;;5049632;28;20052;-70
2020/12/13 11:58:46;;;;;;;6.28;5.40;;;25.80;29.90;;;;;;5049997;28;20069;-70
2020/12/13 12:01:13;;;;;;;5.85;5.25;;;25.80;29.90;;;;;;5049913;28;20045;-70
2020/12/13 12:03:40;;;;;;;7.38;5.80;;;25.80;29.90;;;;;;5048382;28;20041;-70
2020/12/13 12:06:12;;;;;;;6.32;5.60;;;25.80;29.90;;;;;;5048186;28;20041;-69
2020/12/13 12:08:54;;;;;;;6.43;5.35;;;25.80;29.80;;;;;;5048976;28;20403;-70
2020/12/13 12:11:22;;;;;;;6.20;5.32;;;25.70;29.80;;;;;;5049604;28;20156;-69
2020/12/13 12:13:49;;;;;;;5.97;5.30;;;25.80;29.80;;;;;;5049160;28;20044;-70
2020/12/13 12:16:15;;;;;;;6.95;5.80;;;25.80;29.80;;;;;;5049001;28;20045;-72
2020/12/13 12:18:42;;;;;;;5.72;5.13;;;25.80;29.80;;;;;;5048993;28;20072;-70
2020/12/13 12:21:16;;;;;;;6.22;5.22;;;25.80;29.80;;;;;;5049081;28;20055;-70
2020/12/13 12:23:43;;;;;;;6.20;5.60;;;25.80;29.80;;;;;;5045689;28;20037;-70
2020/12/13 12:26:10;;;;;;;6.55;5.85;;;25.80;29.80;;;;;;5048400;28;20120;-69
2020/12/13 12:28:36;;;;;;;6.25;5.47;;;25.80;29.80;;;;;;5047848;28;20091;-70
2020/12/13 12:31:03;;;;;;;6.53;5.82;;;25.80;29.70;;;;;;5047305;28;20400;-70
2020/12/13 12:33:30;;;;;;;5.97;5.38;;;25.80;29.70;;;;;;5048113;28;20045;-70
2020/12/13 12:35:56;;;;;;;5.68;5.18;;;25.80;29.70;;;;;;5048984;28;20490;-70
2020/12/13 12:38:23;;;;;;;5.97;5.35;;;25.80;29.70;;;;;;5048316;28;20148;-69
2020/12/13 12:40:50;;;;;;;5.45;4.95;;;25.90;29.80;;;;;;5047810;28;20387;-70
2020/12/13 12:43:16;;;;;;;5.97;5.38;;;25.80;29.70;;;;;;5047627;28;20041;-70
2020/12/13 12:45:43;;;;;;;6.63;5.75;;;25.80;29.70;;;;;;5047626;28;20110;-73
2020/12/13 12:48:09;;;;;;;5.43;4.68;;;25.80;29.70;;;;;;5047599;28;20047;-69
2020/12/13 12:50:36;;;;;;;7.50;5.95;;;25.80;29.60;;;;;;5048614;28;20136;-69
2020/12/13 12:53:03;;;;;;;5.95;5.18;;;25.80;29.60;;;;;;5046217;28;20041;-69
2020/12/13 12:55:33;;;;;;;6.03;5.43;;;25.80;29.60;;;;;;5047679;28;20049;-69
2020/12/13 12:58:01;;;;;;;5.97;5.38;;;25.80;29.60;;;;;;5048569;28;20503;-70
2020/12/13 13:00:45;;;;;;;6.57;5.50;;;25.80;29.60;;;;;;5045596;28;20139;-70
2020/12/13 13:03:15;;;;;;;6.78;6.07;;;25.80;29.60;;;;;;5046923;28;20581;-69